SBOSBO NBO / HKJK
Speedbird OnlineSpeedbird Online NBO / HKJK

Jomo Kenyatta International Airport
18:34 22°C

Location Nairobi, Kenya
Latitude: -1.31923997402
Longitude: 36.9277992249
Local Time 18:34 on 30 May 2024
UTC +3 hours (Africa/Nairobi)
Currency £1 equals KES 165.90
METAR HKJK 301500Z 08012KT 9999 BKN027 22/16 Q1021 NOSIG
TAF TAF HKJK 301100Z 3012/3118 16005KT 9999 SCT025 BECMG 3020/3023 VRB02K T BKN016 BECMG 3108/3111 22005KT BKN024
Weather As Of 30 May 2024 18:34
Description Moderate rain
Wind 28 km/h from East (70°)
Cloud Cover 75%
Precipitation Rain: none, Snow: none
Sunrise 06:28
Sunset 18:31
NOTAM 9 active NOTAM
Rotations During the last 90 days there were
83 flights from LHR
83 flights to LHR
Lounges TAV Lounge, International Departures
Kenya Airways Pride Lounge, T1A
Swissport Aspire Lounge, Terminal 1B
Web Airport Website | Wikipedia
Codes IATA: NBO
ICAO: HKJK
Altitude 1625 Meter / 5330 Feet
Distance 6,816 KM / 4,235 Miles
from London.
Runways
RunwayLength (m)Surface
064117Asphalt
244117Asphalt
Radio
TypeDescriptionFrequency
APPAPP122.3
ATISATIS126.2
RMPAPRON CTL121.6
TWRNairobi Tower118.7
Live ATC



Support Speedbird Online

© 2017-2024 Speedbird Online